Tropical Cyclones
[Index]
Main Index Home Page Stock Weather Photos Extreme Storms Discussion Storm News and Storm Chasing Reports Tropical Cyclones / Hurricanes / Typhoons Weather Data and Links Wild Fires / Bushfires Weather Observation Techniques Weather Picture Catalogue Tornado Pictures and Reports Stock Video Footage and DVDs for sale
Season 1999-2000 Tropical Cyclone PAUL Track Map
Season 1999-2000 Summaries: [BoM-AU] [JTWC-AU] [JTWC-SIO] [JTWC-SPAC] [JTWC-SH]
<<- Previous TC | BoM 1999-2000 Season | Next TC ->>

click for intensity scale information  Lat/long Grid: Show Hide

 Date Labels: Show Hide

Bureau of Meteorology Tropical Cyclone Data

Name: PAUL
Number: 840 / 199900_11

10 Apr 2000 22:00 UTC to 20 Apr 2000 08:00 UTC

    date/time    lat    long    hPa   cat  kts
2000-04-10 22   13.0   127.5   1000         27          
2000-04-11 04   13.0   126.4   1000         27          
2000-04-11 10   13.0   125.2   1000         27          
2000-04-11 16   13.0   123.7   1000         27          
2000-04-11 22   13.0   121.9   1000         27          
2000-04-12 04   13.2   120.0   1000         27          
2000-04-12 10   13.5   118.3    995    1    35          
2000-04-12 16   13.6   116.5    995    1    35          
2000-04-12 22   13.8   115.0    990    1    41          
2000-04-13 04   14.0   113.5    990    1    41          
2000-04-13 10   14.4   112.0    980    2    54          
2000-04-13 16   15.0   110.5    970    3    64          
2000-04-13 22   15.3   109.4    960    3    76          
2000-04-14 04   15.2   108.5    955    4    80          
2000-04-14 10   15.0   107.4    940    4    93          
2000-04-14 16   14.8   106.5    930    4    101          
2000-04-14 22   14.6   105.4    920    5    107          
2000-04-15 04   14.2   104.2    915    5    111          
2000-04-15 10   14.1   103.3    915    5    111          
2000-04-15 16   13.7   102.4    915    5    111          
2000-04-15 22   13.6   101.5    920    5    107          
2000-04-16 04   13.6   100.7    930    4    101          
2000-04-16 10   13.6    99.9    940    4    93          
2000-04-16 16   13.8    99.0    950    4    84          
2000-04-16 22   13.8    98.2    955    4    80          
2000-04-17 04   14.0    97.6    955    4    80          
2000-04-17 10   14.4    97.1    955    4    80          
2000-04-17 16   14.6    96.6    955    4    80          
2000-04-17 22   14.5    96.1    955    4    80          
2000-04-18 04   14.6    95.7    955    4    80          
2000-04-18 10   14.6    95.5    955    4    80          
2000-04-18 16   14.8    95.3    955    4    80          
2000-04-18 22   14.9    95.3    965    3    70          
2000-04-19 04   14.9    95.2    965    3    70          
2000-04-19 10   15.1    95.0    975    2    60          
2000-04-19 16   15.0    95.0    985    2    49          
2000-04-19 22   15.0    94.7    985    2    49          
2000-04-20 04   14.8    94.5    990    1    41          
2000-04-20 08   15.0    94.3    995    1    35          
Winds are 10-min average.

Tropical cyclone tracks developed by Michael Bath using data from the Bureau of Meteorology and Google Maps.


[Australian Severe Weather index] [Copyright Notice] [Email Contacts] [Search This Site] [Privacy Policy]
Document: tropical_cyclone_paul.htm Updated: 30 May 2013